Time;durP1;ratioP1;P1;durP2;ratioP2;P2;SDS_P1;SDS_P2;PMS_P1;PMS_P2;Temp;Humidity;BMP_temperature;BMP_pressure;BME280_temperature;BME280_humidity;BME280_pressure;Samples;Min_cycle;Max_cycle;Signal;HPM_P1;HPM_P2
2023/06/04 00:00:30;;;;;;;0.20;0.13;;;;;;;;;;5013496;28;20041;-82
2023/06/04 00:02:56;;;;;;;0.20;0.10;;;;;;;;;;5013881;28;20042;-84
2023/06/04 00:05:25;;;;;;;1.00;0.30;;;;;;;;;;4985157;28;20783;-82
2023/06/04 00:07:51;;;;;;;0.20;0.10;;;;;;;;;;5016074;28;20059;-84
2023/06/04 00:10:17;;;;;;;0.20;0.10;;;;;;;;;;5014519;28;20033;-83
2023/06/04 00:12:43;;;;;;;0.20;0.10;;;;;;;;;;5000472;28;20063;-82
2023/06/04 00:15:09;;;;;;;0.20;0.10;;;;;;;;;;4982802;28;20049;-81
2023/06/04 00:17:35;;;;;;;0.20;0.10;;;;;;;;;;5012136;28;20037;-80
2023/06/04 00:20:02;;;;;;;0.55;0.43;;;;;;;;;;4987927;28;20037;-82
2023/06/04 00:22:28;;;;;;;0.20;0.10;;;;;;;;;;4992197;28;20107;-87
2023/06/04 00:24:54;;;;;;;0.20;0.10;;;;;;;;;;5014687;28;20075;-83
2023/06/04 00:27:20;;;;;;;0.20;0.10;;;;;;;;;;4999309;28;20548;-81
2023/06/04 00:29:46;;;;;;;0.20;0.10;;;;;;;;;;4995775;28;20156;-82
2023/06/04 00:32:12;;;;;;;0.20;0.10;;;;;;;;;;5012683;28;20064;-85
2023/06/04 00:34:38;;;;;;;0.20;0.10;;;;;;;;;;5014448;28;20842;-82
2023/06/04 00:37:04;;;;;;;0.20;0.10;;;;;;;;;;5003695;28;20040;-82
2023/06/04 00:39:30;;;;;;;0.20;0.10;;;;;;;;;;4981754;28;20515;-82
2023/06/04 00:41:56;;;;;;;0.20;0.10;;;;;;;;;;4995884;28;20034;-82
2023/06/04 00:44:25;;;;;;;0.20;0.10;;;;;;;;;;5001897;28;20913;-80
2023/06/04 00:46:55;;;;;;;0.20;0.10;;;;;;;;;;5014896;28;20187;-85
2023/06/04 00:49:21;;;;;;;0.47;0.30;;;;;;;;;;4996378;28;20041;-84
2023/06/04 00:51:47;;;;;;;0.20;0.10;;;;;;;;;;5013850;28;20092;-81
2023/06/04 00:54:20;;;;;;;0.20;0.10;;;;;;;;;;4999948;28;20041;-85
2023/06/04 00:56:46;;;;;;;;;;;;;;;;;;4997256;28;20091;-83
2023/06/04 00:59:12;;;;;;;0.20;0.13;;;;;;;;;;4996872;28;19916;-84
2023/06/04 01:01:44;;;;;;;0.20;0.20;;;;;;;;;;4994814;28;20037;-80
2023/06/04 01:04:20;;;;;;;0.20;0.10;;;;;;;;;;4980469;28;20081;-82
2023/06/04 01:06:58;;;;;;;0.20;0.10;;;;;;;;;;4994757;28;20065;-80
2023/06/04 01:09:27;;;;;;;0.20;0.00;;;;;;;;;;5000255;28;20092;-83
2023/06/04 01:12:01;;;;;;;0.20;0.10;;;;;;;;;;4998548;28;20425;-85
2023/06/04 01:14:29;;;;;;;0.20;0.10;;;;;;;;;;5001639;28;20665;-81
2023/06/04 01:17:02;;;;;;;0.20;0.10;;;;;;;;;;4998043;28;20607;-83
2023/06/04 01:19:29;;;;;;;0.20;0.10;;;;;;;;;;4996497;28;20775;-84
2023/06/04 01:22:03;;;;;;;0.20;0.10;;;;;;;;;;4999468;28;20038;-83
2023/06/04 01:24:29;;;;;;;0.20;0.10;;;;;;;;;;5012045;28;20033;-82
2023/06/04 01:26:56;;;;;;;0.20;0.10;;;;;;;;;;4997372;28;20053;-82
2023/06/04 01:29:23;;;;;;;0.20;0.10;;;;;;;;;;4981840;28;20514;-81
2023/06/04 01:31:50;;;;;;;0.20;0.10;;;;;;;;;;4985306;28;20129;-82
2023/06/04 01:34:16;;;;;;;0.20;0.10;;;;;;;;;;5008627;28;20045;-82
2023/06/04 01:36:42;;;;;;;0.22;0.13;;;;;;;;;;5011118;28;20050;-85
2023/06/04 01:39:08;;;;;;;0.20;0.10;;;;;;;;;;5014988;28;20048;-81
2023/06/04 01:41:34;;;;;;;0.20;0.10;;;;;;;;;;4990072;28;20100;-82
2023/06/04 01:44:00;;;;;;;0.20;0.10;;;;;;;;;;5011652;28;20442;-82
2023/06/04 01:46:28;;;;;;;1.15;0.95;;;;;;;;;;4998843;28;20080;-82
2023/06/04 01:48:54;;;;;;;0.20;0.10;;;;;;;;;;4982894;28;20053;-81
2023/06/04 01:51:20;;;;;;;0.20;0.10;;;;;;;;;;5002485;28;20056;-82
2023/06/04 01:53:46;;;;;;;0.90;0.63;;;;;;;;;;5018263;28;20037;-82
2023/06/04 01:56:12;;;;;;;0.20;0.10;;;;;;;;;;5021072;28;20042;-82
2023/06/04 01:58:38;;;;;;;0.20;0.10;;;;;;;;;;4997503;28;20034;-83
2023/06/04 02:01:05;;;;;;;0.20;0.15;;;;;;;;;;5021104;28;20104;-83
2023/06/04 02:03:36;;;;;;;0.20;0.10;;;;;;;;;;5021320;28;20037;-82
2023/06/04 02:06:04;;;;;;;0.50;0.20;;;;;;;;;;5000884;28;20037;-85
2023/06/04 02:08:30;;;;;;;0.20;0.10;;;;;;;;;;5000772;28;20037;-82
2023/06/04 02:10:56;;;;;;;0.20;0.20;;;;;;;;;;5019906;28;20039;-81
2023/06/04 02:13:22;;;;;;;0.20;0.10;;;;;;;;;;4998595;28;20045;-83
2023/06/04 02:15:48;;;;;;;0.20;0.10;;;;;;;;;;4987463;28;20038;-86
2023/06/04 02:18:16;;;;;;;0.20;0.10;;;;;;;;;;5002566;28;20513;-82
2023/06/04 02:20:43;;;;;;;0.20;0.10;;;;;;;;;;5019479;28;20791;-82
2023/06/04 02:23:09;;;;;;;0.20;0.10;;;;;;;;;;5010886;28;20038;-85
2023/06/04 02:25:35;;;;;;;0.20;0.10;;;;;;;;;;5013441;28;20049;-82
2023/06/04 02:28:01;;;;;;;0.20;0.10;;;;;;;;;;5001722;28;20061;-83
2023/06/04 02:30:27;;;;;;;0.20;0.20;;;;;;;;;;5003110;28;20541;-84
2023/06/04 02:32:54;;;;;;;0.20;0.10;;;;;;;;;;4985920;28;20041;-82
2023/06/04 02:35:22;;;;;;;0.20;0.10;;;;;;;;;;4985128;28;20120;-83
2023/06/04 02:37:49;;;;;;;0.20;0.10;;;;;;;;;;5006038;28;20045;-83
2023/06/04 02:40:15;;;;;;;0.20;0.10;;;;;;;;;;5003481;28;20049;-84
2023/06/04 02:42:41;;;;;;;0.35;0.13;;;;;;;;;;4996113;28;20116;-82
2023/06/04 02:45:08;;;;;;;0.20;0.15;;;;;;;;;;5019369;28;20236;-85
2023/06/04 02:47:34;;;;;;;0.20;0.10;;;;;;;;;;4984120;28;20468;-83
2023/06/04 02:50:00;;;;;;;0.30;0.30;;;;;;;;;;4997120;28;20233;-82
2023/06/04 02:52:26;;;;;;;0.30;0.28;;;;;;;;;;4984042;28;20041;-82
2023/06/04 02:54:52;;;;;;;0.20;0.10;;;;;;;;;;5004143;28;20042;-83
2023/06/04 02:57:18;;;;;;;0.20;0.10;;;;;;;;;;5004149;28;20042;-82
2023/06/04 02:59:44;;;;;;;0.20;0.00;;;;;;;;;;5000582;28;20068;-82
2023/06/04 03:02:11;;;;;;;0.20;0.10;;;;;;;;;;5015446;28;20037;-81
2023/06/04 03:04:37;;;;;;;0.20;0.10;;;;;;;;;;5004071;28;20037;-84
2023/06/04 03:07:03;;;;;;;0.28;0.20;;;;;;;;;;5018474;28;20045;-83
2023/06/04 03:09:33;;;;;;;0.20;0.10;;;;;;;;;;4999633;28;20045;-83
2023/06/04 03:12:03;;;;;;;0.20;0.10;;;;;;;;;;5020821;28;20041;-82
2023/06/04 03:14:32;;;;;;;0.20;0.20;;;;;;;;;;5002159;28;20041;-82
2023/06/04 03:17:07;;;;;;;0.20;0.10;;;;;;;;;;4998506;28;20706;-81
2023/06/04 03:19:36;;;;;;;0.20;0.10;;;;;;;;;;5002137;28;20168;-82
2023/06/04 03:22:06;;;;;;;0.20;0.10;;;;;;;;;;5018315;28;20108;-83
2023/06/04 03:24:34;;;;;;;0.20;0.10;;;;;;;;;;4999019;28;20049;-82
2023/06/04 03:27:00;;;;;;;0.20;0.10;;;;;;;;;;5000488;28;20037;-83
2023/06/04 03:29:26;;;;;;;0.20;0.10;;;;;;;;;;4986371;28;20049;-82
2023/06/04 03:31:53;;;;;;;0.20;0.10;;;;;;;;;;5014271;28;20068;-83
2023/06/04 03:34:19;;;;;;;0.20;0.10;;;;;;;;;;5013553;28;20611;-82
2023/06/04 03:36:45;;;;;;;0.20;0.08;;;;;;;;;;5018455;28;22401;-84
2023/06/04 03:39:11;;;;;;;0.20;0.13;;;;;;;;;;5014965;28;20030;-82
2023/06/04 03:41:37;;;;;;;0.20;0.10;;;;;;;;;;5019084;28;20372;-82
2023/06/04 03:44:03;;;;;;;0.20;0.10;;;;;;;;;;5019632;28;20072;-81
2023/06/04 03:46:33;;;;;;;0.20;0.10;;;;;;;;;;5020068;28;20037;-82
2023/06/04 03:48:59;;;;;;;0.20;0.10;;;;;;;;;;5006374;28;20041;-81
2023/06/04 03:51:25;;;;;;;0.20;0.20;;;;;;;;;;5000709;28;20048;-83
2023/06/04 03:53:51;;;;;;;0.20;0.10;;;;;;;;;;5018300;28;20041;-86
2023/06/04 03:56:18;;;;;;;0.20;0.10;;;;;;;;;;5002978;28;20454;-81
2023/06/04 03:58:44;;;;;;;0.20;0.10;;;;;;;;;;5016809;28;20096;-82
2023/06/04 04:01:10;;;;;;;0.20;0.10;;;;;;;;;;5014225;28;20080;-85
2023/06/04 04:03:37;;;;;;;0.20;0.20;;;;;;;;;;5002240;28;20037;-81
2023/06/04 04:06:03;;;;;;;0.20;0.10;;;;;;;;;;5014923;28;20072;-86
2023/06/04 04:08:31;;;;;;;0.40;0.20;;;;;;;;;;4997997;28;20504;-82
2023/06/04 04:10:58;;;;;;;0.20;0.10;;;;;;;;;;5019764;28;20402;-82
2023/06/04 04:13:24;;;;;;;0.20;0.10;;;;;;;;;;4980863;28;20045;-81
2023/06/04 04:15:53;;;;;;;0.20;0.10;;;;;;;;;;5020600;28;20064;-81
2023/06/04 04:18:19;;;;;;;0.20;0.10;;;;;;;;;;5006641;28;20041;-83
2023/06/04 04:20:46;;;;;;;0.20;0.15;;;;;;;;;;5013508;28;20029;-83
2023/06/04 04:23:13;;;;;;;0.20;0.10;;;;;;;;;;5010363;28;20033;-86
2023/06/04 04:25:39;;;;;;;1.23;0.30;;;;;;;;;;5003841;28;20123;-84
2023/06/04 04:28:06;;;;;;;0.20;0.10;;;;;;;;;;5001668;28;20128;-83
2023/06/04 04:30:34;;;;;;;0.20;0.15;;;;;;;;;;5019761;28;20473;-84
2023/06/04 04:33:00;;;;;;;0.20;0.10;;;;;;;;;;5011078;28;20092;-83
2023/06/04 04:35:26;;;;;;;0.20;0.13;;;;;;;;;;5004504;28;20076;-82
2023/06/04 04:37:53;;;;;;;0.20;0.10;;;;;;;;;;5016717;28;20037;-84
2023/06/04 04:40:19;;;;;;;0.20;0.10;;;;;;;;;;5011684;28;20077;-85
2023/06/04 04:42:56;;;;;;;0.20;0.10;;;;;;;;;;5014401;28;20422;-86
2023/06/04 04:45:22;;;;;;;0.20;0.20;;;;;;;;;;5015919;28;20080;-81
2023/06/04 04:47:50;;;;;;;0.20;0.10;;;;;;;;;;4987101;28;20600;-83
2023/06/04 04:50:17;;;;;;;0.20;0.10;;;;;;;;;;5015336;28;20722;-83
2023/06/04 04:52:43;;;;;;;0.20;0.10;;;;;;;;;;5019477;28;20046;-82
2023/06/04 04:55:09;;;;;;;0.25;0.20;;;;;;;;;;4996331;28;20502;-82
2023/06/04 04:57:35;;;;;;;0.22;0.20;;;;;;;;;;4995932;28;20034;-82
2023/06/04 05:00:03;;;;;;;0.38;0.20;;;;;;;;;;5017404;28;20057;-82
2023/06/04 05:02:29;;;;;;;0.20;0.10;;;;;;;;;;4978031;28;20045;-83
2023/06/04 05:04:55;;;;;;;0.20;0.10;;;;;;;;;;5015985;28;20045;-82
2023/06/04 05:07:23;;;;;;;0.20;0.10;;;;;;;;;;4997947;28;20166;-80
2023/06/04 05:09:49;;;;;;;0.20;0.10;;;;;;;;;;4999729;28;20049;-82
2023/06/04 05:12:15;;;;;;;0.20;0.10;;;;;;;;;;5007682;28;20409;-84
2023/06/04 05:14:42;;;;;;;0.20;0.10;;;;;;;;;;5010517;28;20056;-82
2023/06/04 05:17:09;;;;;;;0.20;0.10;;;;;;;;;;5009707;28;20084;-82
2023/06/04 05:19:35;;;;;;;0.30;0.30;;;;;;;;;;4987452;28;20033;-84
2023/06/04 05:22:04;;;;;;;0.20;0.10;;;;;;;;;;4989095;28;20510;-84
2023/06/04 05:24:31;;;;;;;0.20;0.10;;;;;;;;;;4987446;28;20555;-83
2023/06/04 05:26:57;;;;;;;0.20;0.10;;;;;;;;;;4999268;28;20053;-87
2023/06/04 05:29:24;;;;;;;0.20;0.10;;;;;;;;;;4993540;28;20041;-89
2023/06/04 05:31:50;;;;;;;0.20;0.10;;;;;;;;;;5023369;28;20037;-80
2023/06/04 05:34:16;;;;;;;0.22;0.22;;;;;;;;;;5017656;28;20034;-82
2023/06/04 05:36:43;;;;;;;0.20;0.10;;;;;;;;;;5003611;28;20141;-82
2023/06/04 05:39:13;;;;;;;0.20;0.10;;;;;;;;;;5017209;28;20493;-83
2023/06/04 05:41:40;;;;;;;0.20;0.10;;;;;;;;;;5004216;28;20080;-88
2023/06/04 05:44:09;;;;;;;0.20;0.20;;;;;;;;;;5019033;28;20681;-83
2023/06/04 05:46:35;;;;;;;0.20;0.10;;;;;;;;;;5021544;28;20034;-83
2023/06/04 05:49:01;;;;;;;0.20;0.20;;;;;;;;;;4979439;28;20046;-84
2023/06/04 05:51:31;;;;;;;0.20;0.10;;;;;;;;;;5001623;28;20065;-84
2023/06/04 05:53:57;;;;;;;0.20;0.10;;;;;;;;;;4999771;28;20053;-83
2023/06/04 05:56:23;;;;;;;0.28;0.25;;;;;;;;;;5016901;28;20074;-82
2023/06/04 05:58:52;;;;;;;0.20;0.13;;;;;;;;;;4994453;28;20113;-85
2023/06/04 06:01:18;;;;;;;0.20;0.10;;;;;;;;;;5003496;28;20048;-85
2023/06/04 06:03:45;;;;;;;0.20;0.10;;;;;;;;;;5004070;28;20499;-84
2023/06/04 06:06:11;;;;;;;0.20;0.10;;;;;;;;;;5015717;28;20038;-82
2023/06/04 06:08:37;;;;;;;0.20;0.10;;;;;;;;;;4979212;28;20034;-84
2023/06/04 06:11:04;;;;;;;0.20;0.10;;;;;;;;;;5013333;28;20045;-84
2023/06/04 06:13:31;;;;;;;0.20;0.10;;;;;;;;;;5018600;28;20095;-85
2023/06/04 06:15:57;;;;;;;0.30;0.28;;;;;;;;;;5014674;28;20451;-83
2023/06/04 06:18:25;;;;;;;0.65;0.22;;;;;;;;;;4991930;28;20101;-84
2023/06/04 06:20:51;;;;;;;0.20;0.10;;;;;;;;;;5007826;28;20649;-84
2023/06/04 06:23:22;;;;;;;0.55;0.55;;;;;;;;;;5016299;28;20044;-84
2023/06/04 06:25:51;;;;;;;0.20;0.20;;;;;;;;;;5015957;28;20045;-84
2023/06/04 06:28:18;;;;;;;0.20;0.10;;;;;;;;;;5010518;28;20128;-85
2023/06/04 06:30:47;;;;;;;0.20;0.10;;;;;;;;;;5000041;28;20041;-84
2023/06/04 06:33:13;;;;;;;0.20;0.20;;;;;;;;;;5004548;28;20045;-81
2023/06/04 06:35:39;;;;;;;0.22;0.22;;;;;;;;;;4996836;28;20037;-82
2023/06/04 06:38:05;;;;;;;0.20;0.15;;;;;;;;;;5004989;28;20041;-82
2023/06/04 06:40:31;;;;;;;0.20;0.10;;;;;;;;;;4997143;28;20045;-86
2023/06/04 06:42:57;;;;;;;0.20;0.10;;;;;;;;;;5017112;28;20037;-83
2023/06/04 06:45:27;;;;;;;0.40;0.25;;;;;;;;;;4999816;28;20056;-82
2023/06/04 06:47:56;;;;;;;0.30;0.20;;;;;;;;;;5019143;28;20059;-84
2023/06/04 06:50:22;;;;;;;0.20;0.10;;;;;;;;;;4993787;28;20050;-81
2023/06/04 06:52:54;;;;;;;0.20;0.20;;;;;;;;;;5004030;28;20064;-83
2023/06/04 06:55:32;;;;;;;0.28;0.28;;;;;;;;;;5017048;28;20033;-84
2023/06/04 06:58:01;;;;;;;0.20;0.10;;;;;;;;;;5003213;28;20089;-84
2023/06/04 07:00:30;;;;;;;0.20;0.10;;;;;;;;;;5004342;28;20033;-84
2023/06/04 07:03:08;;;;;;;0.20;0.10;;;;;;;;;;5003805;28;20183;-83
2023/06/04 07:05:34;;;;;;;0.30;0.22;;;;;;;;;;5020111;28;20152;-83
2023/06/04 07:08:01;;;;;;;0.30;0.30;;;;;;;;;;5017830;28;20176;-82
2023/06/04 07:10:27;;;;;;;0.20;0.20;;;;;;;;;;5015049;28;20061;-80
2023/06/04 07:12:53;;;;;;;0.20;0.10;;;;;;;;;;5008393;28;20064;-84
2023/06/04 07:15:20;;;;;;;0.20;0.20;;;;;;;;;;4990767;28;20042;-84
2023/06/04 07:17:46;;;;;;;0.20;0.10;;;;;;;;;;4997099;28;20038;-84
2023/06/04 07:20:12;;;;;;;0.20;0.10;;;;;;;;;;5019429;28;20041;-83
2023/06/04 07:22:40;;;;;;;0.20;0.20;;;;;;;;;;4997042;28;20064;-82
2023/06/04 07:25:07;;;;;;;0.40;0.30;;;;;;;;;;4981949;28;20049;-81
2023/06/04 07:27:34;;;;;;;0.20;0.10;;;;;;;;;;5000449;28;20049;-83
2023/06/04 07:30:00;;;;;;;0.20;0.10;;;;;;;;;;5000754;28;20045;-82
2023/06/04 07:32:35;;;;;;;0.22;0.22;;;;;;;;;;4995464;28;20048;-83
2023/06/04 07:35:02;;;;;;;0.20;0.10;;;;;;;;;;5012978;28;20077;-82
2023/06/04 07:37:33;;;;;;;0.20;0.10;;;;;;;;;;5012758;28;20042;-84
2023/06/04 07:39:59;;;;;;;0.20;0.10;;;;;;;;;;5013849;28;20132;-85
2023/06/04 07:42:25;;;;;;;0.20;0.10;;;;;;;;;;4998881;28;20042;-83
2023/06/04 07:44:54;;;;;;;0.30;0.22;;;;;;;;;;4983518;28;20084;-84
2023/06/04 07:47:21;;;;;;;0.20;0.20;;;;;;;;;;4984778;28;20079;-84
2023/06/04 07:49:47;;;;;;;0.20;0.10;;;;;;;;;;4997332;28;20095;-81
2023/06/04 07:52:14;;;;;;;0.20;0.10;;;;;;;;;;4999583;28;20576;-83
2023/06/04 07:54:43;;;;;;;0.20;0.10;;;;;;;;;;4997321;28;20106;-85
2023/06/04 07:57:10;;;;;;;0.20;0.10;;;;;;;;;;4998058;28;20030;-81
2023/06/04 07:59:36;;;;;;;0.20;0.10;;;;;;;;;;5020289;28;20087;-82
2023/06/04 08:02:02;;;;;;;0.20;0.10;;;;;;;;;;5013952;28;20040;-85
2023/06/04 08:04:31;;;;;;;0.20;0.10;;;;;;;;;;5017979;28;20064;-88
2023/06/04 08:07:00;;;;;;;0.20;0.13;;;;;;;;;;5002967;28;20052;-85
2023/06/04 08:09:33;;;;;;;0.20;0.10;;;;;;;;;;5137296;27;20401;-85
2023/06/04 08:11:59;;;;;;;0.20;0.10;;;;;;;;;;5116202;27;20052;-81
2023/06/04 08:14:27;;;;;;;0.20;0.10;;;;;;;;;;5099923;27;20054;-84
2023/06/04 08:16:55;;;;;;;0.20;0.10;;;;;;;;;;5119796;27;20071;-83
2023/06/04 08:19:23;;;;;;;0.20;0.10;;;;;;;;;;5089153;28;20081;-83
2023/06/04 08:21:49;;;;;;;0.20;0.10;;;;;;;;;;5084597;28;20038;-82
2023/06/04 08:24:15;;;;;;;0.20;0.20;;;;;;;;;;5094181;28;20314;-84
2023/06/04 08:26:44;;;;;;;0.20;0.10;;;;;;;;;;5072358;28;20036;-84
2023/06/04 08:29:10;;;;;;;0.20;0.10;;;;;;;;;;5095492;28;20052;-84
2023/06/04 08:31:36;;;;;;;0.20;0.10;;;;;;;;;;5096623;28;20043;-84
2023/06/04 08:34:05;;;;;;;0.30;0.20;;;;;;;;;;5070892;28;20035;-84
2023/06/04 08:36:34;;;;;;;0.20;0.10;;;;;;;;;;5095049;28;20050;-85
2023/06/04 08:39:09;;;;;;;0.20;0.00;;;;;;;;;;5094876;28;20570;-84
2023/06/04 08:41:49;;;;;;;0.20;0.10;;;;;;;;;;5077166;28;20180;-83
2023/06/04 08:44:17;;;;;;;0.20;0.10;;;;;;;;;;5093463;28;20046;-83
2023/06/04 08:46:44;;;;;;;0.20;0.10;;;;;;;;;;5080789;28;20058;-82
2023/06/04 08:49:12;;;;;;;0.20;0.10;;;;;;;;;;5077598;28;20044;-82
2023/06/04 08:51:38;;;;;;;0.20;0.10;;;;;;;;;;5094024;28;20143;-84
2023/06/04 08:54:08;;;;;;;0.20;0.10;;;;;;;;;;5096732;28;20036;-81
2023/06/04 08:56:35;;;;;;;0.40;0.20;;;;;;;;;;5079084;28;20040;-83
2023/06/04 08:59:10;;;;;;;0.20;0.10;;;;;;;;;;5092186;28;20055;-84
2023/06/04 09:01:37;;;;;;;0.20;0.10;;;;;;;;;;5074507;28;20039;-81
2023/06/04 09:04:07;;;;;;;0.20;0.10;;;;;;;;;;5092211;28;20044;-84
2023/06/04 09:06:33;;;;;;;0.20;0.10;;;;;;;;;;5075696;28;20044;-79
2023/06/04 09:09:01;;;;;;;0.20;0.10;;;;;;;;;;5095205;28;20040;-81
2023/06/04 09:11:50;;;;;;;0.20;0.10;;;;;;;;;;5095085;28;20040;-82
2023/06/04 09:14:16;;;;;;;0.20;0.10;;;;;;;;;;5074940;28;20107;-82
2023/06/04 09:16:43;;;;;;;0.20;0.10;;;;;;;;;;5076503;28;20134;-83
2023/06/04 09:19:09;;;;;;;0.20;0.10;;;;;;;;;;5092824;28;20040;-83
2023/06/04 09:21:46;;;;;;;0.20;0.10;;;;;;;;;;5083467;28;20305;-86
2023/06/04 09:24:12;;;;;;;0.20;0.10;;;;;;;;;;5068232;28;20042;-83
2023/06/04 09:26:38;;;;;;;0.20;0.10;;;;;;;;;;5061637;28;20131;-84
2023/06/04 09:29:05;;;;;;;0.20;0.10;;;;;;;;;;5085164;28;20052;-84
2023/06/04 09:31:36;;;;;;;0.20;0.10;;;;;;;;;;5081636;28;20044;-82
2023/06/04 09:34:11;;;;;;;0.20;0.10;;;;;;;;;;5067433;28;20040;-85
2023/06/04 09:36:42;;;;;;;0.20;0.10;;;;;;;;;;5066074;28;20567;-84
2023/06/04 09:39:17;;;;;;;0.20;0.10;;;;;;;;;;5075770;28;20032;-82
2023/06/04 09:41:43;;;;;;;0.30;0.28;;;;;;;;;;5065552;28;20051;-83
2023/06/04 09:44:10;;;;;;;0.20;0.10;;;;;;;;;;5080884;28;20036;-82
2023/06/04 09:46:36;;;;;;;0.20;0.10;;;;;;;;;;5080025;28;21521;-84
2023/06/04 09:49:06;;;;;;;0.20;0.10;;;;;;;;;;5067436;28;20504;-83
2023/06/04 09:51:32;;;;;;;0.20;0.10;;;;;;;;;;5063448;28;20036;-86
2023/06/04 09:54:06;;;;;;;0.20;0.10;;;;;;;;;;5076971;28;20462;-84
2023/06/04 09:56:42;;;;;;;0.20;0.10;;;;;;;;;;5081236;28;20077;-84
2023/06/04 09:59:09;;;;;;;0.20;0.10;;;;;;;;;;5061706;28;20040;-82
2023/06/04 10:01:38;;;;;;;0.20;0.10;;;;;;;;;;5086349;28;20508;-84
2023/06/04 10:04:07;;;;;;;0.20;0.10;;;;;;;;;;5063213;28;20039;-85
2023/06/04 10:06:34;;;;;;;0.20;0.10;;;;;;;;;;5060051;28;20387;-83
2023/06/04 10:09:03;;;;;;;0.20;0.00;;;;;;;;;;5060866;28;20036;-84
2023/06/04 10:11:38;;;;;;;0.20;0.10;;;;;;;;;;5078092;28;20510;-83
2023/06/04 10:14:08;;;;;;;0.20;0.10;;;;;;;;;;5080026;28;20032;-83
2023/06/04 10:16:39;;;;;;;0.20;0.10;;;;;;;;;;5062471;28;20032;-83
2023/06/04 10:19:13;;;;;;;0.20;0.10;;;;;;;;;;5062717;28;20067;-82
2023/06/04 10:21:39;;;;;;;0.20;0.10;;;;;;;;;;5079932;28;20130;-83
2023/06/04 10:24:05;;;;;;;0.20;0.10;;;;;;;;;;5059954;28;20505;-82
2023/06/04 10:26:35;;;;;;;0.20;0.10;;;;;;;;;;5080537;28;20047;-82
2023/06/04 10:29:06;;;;;;;0.20;0.10;;;;;;;;;;5076822;28;20194;-85
2023/06/04 10:31:35;;;;;;;0.20;0.10;;;;;;;;;;5052650;28;20405;-84
2023/06/04 10:34:01;;;;;;;0.20;0.00;;;;;;;;;;5057583;28;20416;-82
2023/06/04 10:36:28;;;;;;;0.20;0.10;;;;;;;;;;5057623;28;20059;-80
2023/06/04 10:39:07;;;;;;;0.20;0.10;;;;;;;;;;5084950;28;20079;-85
2023/06/04 10:41:36;;;;;;;0.20;0.10;;;;;;;;;;5065603;28;20048;-86
2023/06/04 10:44:12;;;;;;;0.20;0.10;;;;;;;;;;5079239;28;20047;-84
2023/06/04 10:46:46;;;;;;;0.20;0.10;;;;;;;;;;5058604;28;20091;-82
2023/06/04 10:49:12;;;;;;;0.20;0.10;;;;;;;;;;5059397;28;20039;-81
2023/06/04 10:51:38;;;;;;;0.20;0.10;;;;;;;;;;5076713;28;20036;-85
2023/06/04 10:54:10;;;;;;;0.20;0.10;;;;;;;;;;5058902;28;20044;-85
2023/06/04 10:56:36;;;;;;;0.20;0.10;;;;;;;;;;5080669;28;20122;-86
2023/06/04 10:59:22;;;;;;;0.20;0.10;;;;;;;;;;5063233;28;20060;-84
2023/06/04 11:01:51;;;;;;;0.20;0.10;;;;;;;;;;5059783;28;20388;-83
2023/06/04 11:04:40;;;;;;;0.20;0.20;;;;;;;;;;5079466;28;20040;-84
2023/06/04 11:07:14;;;;;;;0.20;0.10;;;;;;;;;;5062607;28;21089;-84
2023/06/04 11:09:56;;;;;;;0.20;0.10;;;;;;;;;;5056350;28;20044;-85
2023/06/04 11:12:41;;;;;;;0.20;0.10;;;;;;;;;;5063514;28;20440;-84
2023/06/04 11:15:10;;;;;;;0.25;0.17;;;;;;;;;;5062662;28;20044;-81
2023/06/04 11:17:49;;;;;;;0.20;0.10;;;;;;;;;;5074116;28;20050;-86
2023/06/04 11:20:19;;;;;;;0.20;0.10;;;;;;;;;;5059246;28;20131;-84
2023/06/04 11:23:02;;;;;;;0.20;0.10;;;;;;;;;;5080919;28;20028;-82
2023/06/04 11:25:30;;;;;;;0.95;0.30;;;;;;;;;;5075133;28;20048;-85
2023/06/04 11:28:04;;;;;;;0.20;0.10;;;;;;;;;;5077808;28;20067;-85
2023/06/04 11:30:30;;;;;;;0.28;0.17;;;;;;;;;;5061627;28;20252;-83
2023/06/04 11:33:08;;;;;;;0.20;0.00;;;;;;;;;;5078945;28;20500;-88
2023/06/04 11:35:41;;;;;;;0.20;0.10;;;;;;;;;;5080850;28;20036;-84
2023/06/04 11:38:08;;;;;;;0.20;0.10;;;;;;;;;;5081414;28;20148;-83
2023/06/04 11:40:34;;;;;;;0.20;0.10;;;;;;;;;;5076878;28;20051;-85
2023/06/04 11:43:00;;;;;;;0.20;0.10;;;;;;;;;;5076040;28;20041;-84
2023/06/04 11:45:30;;;;;;;0.20;0.10;;;;;;;;;;5074119;28;20042;-86
2023/06/04 11:47:57;;;;;;;0.20;0.10;;;;;;;;;;5058101;28;20123;-83
2023/06/04 11:50:35;;;;;;;0.20;0.10;;;;;;;;;;5059871;28;20109;-87
2023/06/04 11:53:19;;;;;;;0.20;0.10;;;;;;;;;;5063852;28;20036;-84
2023/06/04 11:55:45;;;;;;;0.20;0.10;;;;;;;;;;5071439;28;20127;-84
2023/06/04 11:58:23;;;;;;;0.20;0.17;;;;;;;;;;5055237;28;20075;-82
2023/06/04 12:00:50;;;;;;;0.20;0.10;;;;;;;;;;5057024;28;20115;-81
2023/06/04 12:03:18;;;;;;;0.20;0.10;;;;;;;;;;5075517;28;20040;-82
2023/06/04 12:05:44;;;;;;;0.20;0.05;;;;;;;;;;5078033;28;20051;-83
2023/06/04 12:08:11;;;;;;;0.20;0.17;;;;;;;;;;5056631;28;20045;-84
2023/06/04 12:10:38;;;;;;;0.20;0.10;;;;;;;;;;5074735;28;20040;-82
2023/06/04 12:13:04;;;;;;;0.20;0.10;;;;;;;;;;5057233;28;20035;-87
2023/06/04 12:15:30;;;;;;;0.30;0.17;;;;;;;;;;5057091;28;20043;-81
2023/06/04 12:17:56;;;;;;;0.20;0.10;;;;;;;;;;5077101;28;20044;-80
2023/06/04 12:20:33;;;;;;;0.20;0.10;;;;;;;;;;5078303;28;20049;-82
2023/06/04 12:22:59;;;;;;;0.20;0.10;;;;;;;;;;5081468;28;20109;-82
2023/06/04 12:25:26;;;;;;;0.20;0.10;;;;;;;;;;5077395;28;20040;-84
2023/06/04 12:27:52;;;;;;;0.20;0.10;;;;;;;;;;5078058;28;20036;-83
2023/06/04 12:30:18;;;;;;;0.20;0.10;;;;;;;;;;5051932;28;20081;-81
2023/06/04 12:32:45;;;;;;;0.20;0.10;;;;;;;;;;5075504;28;20028;-84
2023/06/04 12:35:11;;;;;;;0.20;0.10;;;;;;;;;;5081122;28;20408;-86
2023/06/04 12:37:37;;;;;;;0.20;0.10;;;;;;;;;;5076100;28;20657;-84
2023/06/04 12:40:06;;;;;;;0.63;0.20;;;;;;;;;;5062768;28;20532;-83
2023/06/04 12:42:32;;;;;;;0.20;0.13;;;;;;;;;;5080255;28;20440;-84
2023/06/04 12:45:04;;;;;;;0.30;0.28;;;;;;;;;;5079287;28;20565;-81
2023/06/04 12:47:30;;;;;;;0.20;0.10;;;;;;;;;;5063928;28;20040;-85
2023/06/04 12:50:05;;;;;;;0.20;0.10;;;;;;;;;;5061341;28;20044;-86
2023/06/04 12:52:31;;;;;;;0.20;0.10;;;;;;;;;;5077047;28;20209;-84
2023/06/04 12:55:05;;;;;;;0.20;0.10;;;;;;;;;;5080357;28;20126;-83
2023/06/04 12:57:31;;;;;;;0.20;0.10;;;;;;;;;;5065152;28;20076;-82
2023/06/04 12:59:57;;;;;;;0.20;0.10;;;;;;;;;;5066589;28;20032;-83
2023/06/04 13:02:23;;;;;;;0.25;0.15;;;;;;;;;;5085121;28;21062;-83
2023/06/04 13:04:54;;;;;;;0.20;0.10;;;;;;;;;;5065763;28;20496;-82
2023/06/04 13:07:23;;;;;;;0.20;0.10;;;;;;;;;;5082905;28;20040;-84
2023/06/04 13:09:49;;;;;;;0.20;0.10;;;;;;;;;;5082038;28;20090;-82
2023/06/04 13:12:18;;;;;;;0.20;0.10;;;;;;;;;;5082872;28;20040;-86
2023/06/04 13:14:44;;;;;;;0.20;0.10;;;;;;;;;;5083159;28;20035;-85
2023/06/04 13:17:10;;;;;;;0.20;0.10;;;;;;;;;;5068337;28;20043;-82
2023/06/04 13:19:36;;;;;;;0.20;0.08;;;;;;;;;;5061414;28;20405;-82
2023/06/04 13:22:02;;;;;;;0.20;0.10;;;;;;;;;;5083843;28;20039;-82
2023/06/04 13:24:28;;;;;;;0.20;0.10;;;;;;;;;;5083268;28;20063;-86
2023/06/04 13:26:55;;;;;;;0.20;0.10;;;;;;;;;;5082400;28;20686;-84
2023/06/04 13:29:23;;;;;;;0.20;0.10;;;;;;;;;;5083155;28;20422;-83
2023/06/04 13:31:49;;;;;;;0.20;0.10;;;;;;;;;;5082494;28;20048;-84
2023/06/04 13:34:15;;;;;;;0.20;0.10;;;;;;;;;;5061068;28;20040;-84
2023/06/04 13:36:47;;;;;;;0.20;0.10;;;;;;;;;;5064166;28;20032;-82
2023/06/04 13:39:15;;;;;;;0.20;0.10;;;;;;;;;;5083023;28;20051;-84
2023/06/04 13:41:41;;;;;;;0.20;0.10;;;;;;;;;;5063519;28;20040;-84
2023/06/04 13:44:16;;;;;;;0.20;0.00;;;;;;;;;;5081576;28;20046;-84
2023/06/04 13:46:42;;;;;;;0.20;0.00;;;;;;;;;;5062383;28;20050;-84
2023/06/04 13:49:08;;;;;;;0.22;0.20;;;;;;;;;;5081662;28;20097;-84
2023/06/04 13:51:40;;;;;;;0.20;0.10;;;;;;;;;;5062463;28;20039;-83
2023/06/04 13:54:06;;;;;;;0.20;0.10;;;;;;;;;;5079788;28;20060;-84
2023/06/04 13:56:32;;;;;;;0.20;0.10;;;;;;;;;;5062026;28;20041;-84
2023/06/04 13:58:58;;;;;;;0.20;0.10;;;;;;;;;;5082219;28;20047;-89
2023/06/04 14:01:27;;;;;;;0.20;0.10;;;;;;;;;;5066403;28;20078;-86
2023/06/04 14:03:53;;;;;;;0.20;0.10;;;;;;;;;;5083605;28;20590;-84
2023/06/04 14:06:22;;;;;;;0.20;0.10;;;;;;;;;;5065878;28;20044;-84
2023/06/04 14:08:48;;;;;;;0.20;0.15;;;;;;;;;;5082218;28;20094;-84
2023/06/04 14:11:14;;;;;;;0.20;0.20;;;;;;;;;;5083160;28;20503;-83
2023/06/04 14:13:44;;;;;;;0.22;0.13;;;;;;;;;;5061984;28;20040;-85
2023/06/04 14:16:11;;;;;;;0.20;0.10;;;;;;;;;;5085895;28;20036;-83
2023/06/04 14:18:38;;;;;;;0.22;0.20;;;;;;;;;;5082814;28;20048;-81
2023/06/04 14:21:06;;;;;;;0.20;0.10;;;;;;;;;;5065891;28;20097;-83
2023/06/04 14:23:32;;;;;;;0.20;0.10;;;;;;;;;;5081639;28;20044;-81
2023/06/04 14:26:01;;;;;;;0.20;0.10;;;;;;;;;;5083835;28;20040;-87
2023/06/04 14:28:27;;;;;;;0.20;0.10;;;;;;;;;;5061339;28;20515;-83
2023/06/04 14:30:53;;;;;;;0.20;0.20;;;;;;;;;;5078685;28;20123;-86
2023/06/04 14:33:19;;;;;;;0.20;0.10;;;;;;;;;;5078320;28;20044;-85
2023/06/04 14:35:46;;;;;;;0.20;0.10;;;;;;;;;;5058222;28;20048;-84
2023/06/04 14:38:15;;;;;;;0.20;0.10;;;;;;;;;;5081318;28;20123;-86
2023/06/04 14:40:43;;;;;;;0.20;0.10;;;;;;;;;;5074781;28;20044;-85
2023/06/04 14:43:12;;;;;;;0.20;0.10;;;;;;;;;;5083301;28;20115;-83
2023/06/04 14:45:39;;;;;;;0.20;0.20;;;;;;;;;;5061939;28;20049;-83
2023/06/04 14:48:05;;;;;;;0.20;0.10;;;;;;;;;;5059769;28;20440;-84